Time;durP1;ratioP1;P1;durP2;ratioP2;P2;SDS_P1;SDS_P2;PMS_P1;PMS_P2;Temp;Humidity;BMP_temperature;BMP_pressure;BME280_temperature;BME280_humidity;BME280_pressure;Samples;Min_cycle;Max_cycle;Signal;HPM_P1;HPM_P2
2024/01/06 00:02:57;;;;;;;9.20;3.63;;;;;;;;;;10591778;27;20074;-76
2024/01/06 00:08:01;;;;;;;11.35;3.75;;;;;;;;;;10591527;27;20045;-75
2024/01/06 00:13:04;;;;;;;9.75;4.00;;;;;;;;;;10588923;27;20070;-75
2024/01/06 00:18:06;;;;;;;7.18;3.53;;;;;;;;;;10586301;27;20480;-75
2024/01/06 00:23:11;;;;;;;7.75;3.97;;;;;;;;;;10586059;27;20042;-75
2024/01/06 00:28:14;;;;;;;;;;;;;;;;;;10584032;27;20031;-76
2024/01/06 00:33:16;;;;;;;9.75;4.07;;;;;;;;;;10588124;27;19934;-75
2024/01/06 00:38:20;;;;;;;8.65;4.15;;;;;;;;;;10590888;27;20045;-74
2024/01/06 00:43:23;;;;;;;10.70;4.45;;;;;;;;;;10579506;27;20043;-74
2024/01/06 00:48:26;;;;;;;10.27;3.58;;;;;;;;;;10585898;27;20180;-75
2024/01/06 00:53:30;;;;;;;7.30;2.90;;;;;;;;;;10588102;27;20450;-75
2024/01/06 00:58:33;;;;;;;;;;;;;;;;;;10581180;27;20122;-73
2024/01/06 01:03:35;;;;;;;7.55;3.13;;;;;;;;;;10595641;27;19965;-75
2024/01/06 01:08:39;;;;;;;10.32;2.97;;;;;;;;;;10591068;27;20141;-76
2024/01/06 01:13:42;;;;;;;;;;;;;;;;;;10592884;27;20039;-76
2024/01/06 01:18:45;;;;;;;7.15;2.50;;;;;;;;;;10583908;27;19923;-75
2024/01/06 01:23:49;;;;;;;4.20;1.90;;;;;;;;;;10560432;27;20043;-76
2024/01/06 01:28:51;;;;;;;5.10;2.00;;;;;;;;;;10574767;27;20131;-74
2024/01/06 01:33:54;;;;;;;6.05;1.70;;;;;;;;;;10584593;27;20067;-75
2024/01/06 01:38:58;;;;;;;4.25;2.03;;;;;;;;;;10579907;27;20096;-75
2024/01/06 01:44:00;;;;;;;4.05;1.77;;;;;;;;;;10568941;27;20130;-75
2024/01/06 01:49:03;;;;;;;6.97;2.20;;;;;;;;;;10580337;27;20441;-75
2024/01/06 01:54:08;;;;;;;5.80;2.03;;;;;;;;;;10584590;28;20403;-74
2024/01/06 01:59:12;;;;;;;7.65;2.92;;;;;;;;;;10579679;27;20035;-75
2024/01/06 02:04:14;;;;;;;5.78;2.58;;;;;;;;;;10587120;28;20047;-76
2024/01/06 02:09:18;;;;;;;9.23;3.20;;;;;;;;;;10580696;27;20138;-76
2024/01/06 02:14:21;;;;;;;8.95;3.08;;;;;;;;;;10588812;28;20053;-74
2024/01/06 02:19:23;;;;;;;9.90;4.28;;;;;;;;;;10588123;27;20046;-74
2024/01/06 02:24:27;;;;;;;9.73;4.22;;;;;;;;;;10588468;27;20046;-76
2024/01/06 02:29:30;;;;;;;9.27;3.58;;;;;;;;;;10582947;27;20071;-75
2024/01/06 02:34:34;;;;;;;11.18;4.70;;;;;;;;;;10589586;27;20181;-76
2024/01/06 02:39:37;;;;;;;;;;;;;;;;;;10591142;27;20031;-76
2024/01/06 02:44:41;;;;;;;8.93;3.50;;;;;;;;;;10589365;27;20387;-76
2024/01/06 02:49:43;;;;;;;7.60;3.28;;;;;;;;;;10589862;27;20100;-76
2024/01/06 02:54:46;;;;;;;7.90;3.25;;;;;;;;;;10589014;27;20134;-76
2024/01/06 02:59:50;;;;;;;5.60;2.55;;;;;;;;;;10591845;27;20032;-77
2024/01/06 03:04:53;;;;;;;5.75;2.83;;;;;;;;;;10591561;27;20031;-76
2024/01/06 03:09:56;;;;;;;8.48;3.00;;;;;;;;;;10583866;27;20043;-77
2024/01/06 03:15:00;;;;;;;8.40;3.40;;;;;;;;;;10586208;27;20395;-76
2024/01/06 03:20:03;;;;;;;8.00;3.20;;;;;;;;;;10579414;27;20126;-76
2024/01/06 03:25:07;;;;;;;7.13;3.03;;;;;;;;;;10585281;27;20047;-76
2024/01/06 03:30:12;;;;;;;8.93;3.27;;;;;;;;;;10579673;27;20031;-74
2024/01/06 03:35:15;;;;;;;5.85;2.60;;;;;;;;;;10584328;27;20043;-75
2024/01/06 03:40:17;;;;;;;3.72;2.13;;;;;;;;;;10587319;27;20170;-76
2024/01/06 03:45:21;;;;;;;5.57;2.10;;;;;;;;;;10570664;27;20407;-76
2024/01/06 03:50:24;;;;;;;4.63;2.40;;;;;;;;;;10582474;27;20094;-75
2024/01/06 03:55:27;;;;;;;5.20;2.22;;;;;;;;;;10583554;27;21122;-75
2024/01/06 04:00:31;;;;;;;5.10;2.00;;;;;;;;;;10583555;27;20046;-75
2024/01/06 04:05:33;;;;;;;6.43;2.35;;;;;;;;;;10593709;27;20043;-74
2024/01/06 04:10:36;;;;;;;4.28;1.63;;;;;;;;;;10587173;27;20097;-74
2024/01/06 04:15:40;;;;;;;3.22;1.40;;;;;;;;;;10593574;27;20047;-76
2024/01/06 04:20:43;;;;;;;;;;;;;;;;;;10585228;27;20041;-74
2024/01/06 04:25:45;;;;;;;1.48;1.10;;;;;;;;;;10584764;27;19966;-74
2024/01/06 04:30:49;;;;;;;3.72;1.35;;;;;;;;;;10597129;27;20070;-76
2024/01/06 04:35:52;;;;;;;;;;;;;;;;;;10592740;27;20127;-74
2024/01/06 04:40:54;;;;;;;1.23;0.80;;;;;;;;;;10590270;27;19951;-74
2024/01/06 04:45:58;;;;;;;0.63;0.50;;;;;;;;;;10586827;27;20081;-75
2024/01/06 04:51:03;;;;;;;1.13;0.68;;;;;;;;;;10589974;27;20522;-75
2024/01/06 04:56:05;;;;;;;0.30;0.30;;;;;;;;;;10592316;27;20043;-75
2024/01/06 05:01:09;;;;;;;0.57;0.30;;;;;;;;;;10581373;27;20031;-73
2024/01/06 05:06:13;;;;;;;0.63;0.30;;;;;;;;;;10587579;27;20039;-75
2024/01/06 05:11:16;;;;;;;0.57;0.35;;;;;;;;;;10585736;27;20039;-75
2024/01/06 05:16:20;;;;;;;0.85;0.40;;;;;;;;;;10580467;27;20077;-75
2024/01/06 05:21:23;;;;;;;0.70;0.45;;;;;;;;;;10586939;27;20126;-75
2024/01/06 05:26:26;;;;;;;0.50;0.40;;;;;;;;;;10577593;27;20050;-75
2024/01/06 05:31:29;;;;;;;1.70;0.50;;;;;;;;;;10589268;27;20476;-75
2024/01/06 05:36:32;;;;;;;0.63;0.43;;;;;;;;;;10584183;27;20051;-75
2024/01/06 05:41:38;;;;;;;0.32;0.30;;;;;;;;;;10586649;27;20490;-74
2024/01/06 05:46:42;;;;;;;0.93;0.50;;;;;;;;;;10585903;27;20590;-74
2024/01/06 05:51:45;;;;;;;1.85;0.60;;;;;;;;;;10582700;27;20121;-75
2024/01/06 05:56:47;;;;;;;1.10;0.55;;;;;;;;;;10596920;27;20044;-74
2024/01/06 06:01:52;;;;;;;0.80;0.73;;;;;;;;;;10596565;27;20032;-75
2024/01/06 06:06:54;;;;;;;3.70;1.27;;;;;;;;;;10573775;27;20298;-74
2024/01/06 06:12:00;;;;;;;3.38;1.50;;;;;;;;;;10597596;27;20036;-75
2024/01/06 06:17:04;;;;;;;1.30;0.93;;;;;;;;;;10585638;27;20122;-75
2024/01/06 06:22:07;;;;;;;;;;;;;;;;;;10595775;27;20545;-76
2024/01/06 06:27:09;;;;;;;1.15;0.90;;;;;;;;;;10592565;27;20521;-76
2024/01/06 06:32:13;;;;;;;3.38;1.25;;;;;;;;;;10596454;27;20038;-77
2024/01/06 06:37:16;;;;;;;1.45;0.98;;;;;;;;;;10586739;27;20221;-76
2024/01/06 06:42:19;;;;;;;2.53;1.05;;;;;;;;;;10594200;27;20039;-76
2024/01/06 06:47:23;;;;;;;2.85;1.38;;;;;;;;;;10583723;27;20047;-79
2024/01/06 06:52:26;;;;;;;3.17;1.30;;;;;;;;;;10586819;27;20027;-75
2024/01/06 06:57:29;;;;;;;2.85;1.55;;;;;;;;;;10596939;27;20538;-76
2024/01/06 07:02:33;;;;;;;3.35;1.60;;;;;;;;;;10598261;27;20134;-75
2024/01/06 07:07:37;;;;;;;2.58;1.33;;;;;;;;;;10577922;27;20043;-76
2024/01/06 07:12:40;;;;;;;2.67;1.40;;;;;;;;;;10587746;27;20044;-75
2024/01/06 07:17:44;;;;;;;4.72;1.52;;;;;;;;;;10585253;27;20071;-76
2024/01/06 07:22:47;;;;;;;3.72;1.55;;;;;;;;;;10587453;27;20134;-77
2024/01/06 07:27:49;;;;;;;2.13;1.42;;;;;;;;;;10589257;27;20059;-76
2024/01/06 07:32:58;;;;;;;2.53;1.27;;;;;;;;;;10591218;27;20071;-75
2024/01/06 07:38:00;;;;;;;4.43;1.60;;;;;;;;;;10587092;27;20047;-75
2024/01/06 07:43:04;;;;;;;4.38;1.83;;;;;;;;;;10589925;27;20043;-75
2024/01/06 07:48:08;;;;;;;4.82;1.70;;;;;;;;;;10588447;27;20137;-75
2024/01/06 07:53:11;;;;;;;4.15;1.70;;;;;;;;;;10585730;27;20039;-75
2024/01/06 07:58:13;;;;;;;7.35;2.42;;;;;;;;;;10593656;27;20111;-75
2024/01/06 08:03:17;;;;;;;6.90;2.10;;;;;;;;;;10591152;27;20127;-75
2024/01/06 08:08:20;;;;;;;4.55;1.75;;;;;;;;;;10589598;27;21919;-76
2024/01/06 08:13:23;;;;;;;6.00;2.33;;;;;;;;;;10584009;27;20046;-75
2024/01/06 08:18:27;;;;;;;3.35;2.05;;;;;;;;;;10592073;27;20050;-76
2024/01/06 08:23:31;;;;;;;4.75;1.90;;;;;;;;;;10594718;27;20118;-74
2024/01/06 08:28:33;;;;;;;3.58;1.85;;;;;;;;;;10588657;27;20079;-76
2024/01/06 08:33:37;;;;;;;5.03;2.45;;;;;;;;;;10588200;27;20035;-75
2024/01/06 08:38:40;;;;;;;4.95;2.08;;;;;;;;;;10592357;27;20046;-76
2024/01/06 08:43:43;;;;;;;3.25;1.17;;;;;;;;;;10588034;27;20152;-76
2024/01/06 08:48:47;;;;;;;3.03;1.20;;;;;;;;;;10587462;27;20098;-76
2024/01/06 08:53:50;;;;;;;3.88;1.10;;;;;;;;;;10586498;27;20071;-78
2024/01/06 08:58:53;;;;;;;4.32;1.38;;;;;;;;;;10581104;27;20036;-76
2024/01/06 09:03:57;;;;;;;3.08;0.98;;;;;;;;;;10587865;27;20038;-76
2024/01/06 09:09:00;;;;;;;5.45;1.20;;;;;;;;;;10595213;27;20046;-76
2024/01/06 09:14:06;;;;;;;4.55;1.40;;;;;;;;;;10587796;27;20043;-74
2024/01/06 09:19:11;;;;;;;2.38;1.40;;;;;;;;;;10588092;27;20072;-76
2024/01/06 09:24:15;;;;;;;1.67;0.82;;;;;;;;;;10583976;27;20043;-74
2024/01/06 09:29:18;;;;;;;2.88;0.98;;;;;;;;;;10592206;27;20043;-74
2024/01/06 09:34:21;;;;;;;4.65;1.83;;;;;;;;;;10584293;27;20031;-75
2024/01/06 09:39:24;;;;;;;3.45;1.67;;;;;;;;;;10583981;27;20047;-73
2024/01/06 09:44:27;;;;;;;4.90;1.80;;;;;;;;;;10593452;27;20043;-75
2024/01/06 09:49:32;;;;;;;4.03;1.20;;;;;;;;;;10592390;27;20079;-76
2024/01/06 09:54:35;;;;;;;5.00;1.50;;;;;;;;;;10581134;27;20388;-78
2024/01/06 09:59:38;;;;;;;3.58;1.80;;;;;;;;;;10563201;27;20047;-75
2024/01/06 10:04:43;;;;;;;3.38;1.17;;;;;;;;;;10593967;27;20548;-76
2024/01/06 10:09:46;;;;;;;4.20;1.80;;;;;;;;;;10593536;27;20104;-75
2024/01/06 10:14:48;;;;;;;1.92;0.73;;;;;;;;;;10582979;27;20724;-75
2024/01/06 10:19:53;;;;;;;2.85;1.40;;;;;;;;;;10589404;27;20044;-74
2024/01/06 10:24:56;;;;;;;6.10;2.60;;;;;;;;;;10587745;27;20031;-76
2024/01/06 10:29:58;;;;;;;7.07;2.95;;;;;;;;;;10587928;27;20043;-74
2024/01/06 10:35:03;;;;;;;5.55;2.20;;;;;;;;;;10579174;27;20061;-75
2024/01/06 10:40:10;;;;;;;10.82;2.22;;;;;;;;;;10590003;27;20045;-74
2024/01/06 10:45:14;;;;;;;6.85;2.80;;;;;;;;;;10576799;27;20127;-75
2024/01/06 10:50:18;;;;;;;6.77;2.57;;;;;;;;;;10588969;27;20035;-74
2024/01/06 10:55:22;;;;;;;2.47;1.55;;;;;;;;;;10589579;27;20122;-75
2024/01/06 11:00:25;;;;;;;2.97;1.40;;;;;;;;;;10583323;27;20411;-75
2024/01/06 11:05:29;;;;;;;3.88;2.08;;;;;;;;;;10593885;27;20125;-75
2024/01/06 11:10:32;;;;;;;4.47;1.40;;;;;;;;;;10592436;27;20043;-74
2024/01/06 11:15:39;;;;;;;7.00;2.50;;;;;;;;;;10599174;27;20061;-74
2024/01/06 11:20:57;;;;;;;6.95;2.72;;;;;;;;;;10592902;27;20904;-75
2024/01/06 11:26:01;;;;;;;3.67;1.48;;;;;;;;;;10600310;27;20080;-75
2024/01/06 11:31:08;;;;;;;5.18;2.55;;;;;;;;;;10588691;27;20038;-74
2024/01/06 11:36:12;;;;;;;7.30;2.40;;;;;;;;;;10594427;27;20043;-74
2024/01/06 11:41:43;;;;;;;6.53;2.93;;;;;;;;;;10589997;27;20045;-75
2024/01/06 11:46:46;;;;;;;4.97;2.17;;;;;;;;;;10586168;27;20043;-74
2024/01/06 11:51:49;;;;;;;6.72;2.70;;;;;;;;;;10584213;27;20051;-74
2024/01/06 11:56:55;;;;;;;4.88;2.42;;;;;;;;;;10589060;27;20166;-75
2024/01/06 12:01:58;;;;;;;6.13;3.10;;;;;;;;;;10578372;27;20251;-75
2024/01/06 12:07:07;;;;;;;4.43;1.75;;;;;;;;;;10578103;27;20658;-74
2024/01/06 12:12:14;;;;;;;9.48;3.35;;;;;;;;;;10591400;27;20040;-74
2024/01/06 12:17:16;;;;;;;6.93;3.05;;;;;;;;;;10582084;27;20036;-74
2024/01/06 12:22:19;;;;;;;9.07;3.13;;;;;;;;;;10582063;27;20122;-74
2024/01/06 12:27:25;;;;;;;6.38;2.67;;;;;;;;;;10591459;27;20096;-75
2024/01/06 12:32:28;;;;;;;6.70;2.80;;;;;;;;;;10589769;27;20077;-74
2024/01/06 12:37:30;;;;;;;11.52;3.53;;;;;;;;;;10588825;27;20047;-74
2024/01/06 12:42:35;;;;;;;10.65;3.10;;;;;;;;;;10584863;27;20049;-75
2024/01/06 12:47:39;;;;;;;8.70;3.58;;;;;;;;;;10586924;27;20049;-74
2024/01/06 12:52:42;;;;;;;4.65;2.40;;;;;;;;;;10583632;27;20049;-74
2024/01/06 12:57:46;;;;;;;4.97;2.50;;;;;;;;;;10589626;27;20040;-75
2024/01/06 13:02:49;;;;;;;5.28;1.92;;;;;;;;;;10586091;27;20039;-74
2024/01/06 13:07:51;;;;;;;6.18;2.55;;;;;;;;;;10591924;27;20166;-75
2024/01/06 13:12:55;;;;;;;7.25;2.70;;;;;;;;;;10582149;27;20063;-75
2024/01/06 13:17:58;;;;;;;6.63;2.40;;;;;;;;;;10573498;27;20080;-74
2024/01/06 13:23:01;;;;;;;4.32;2.40;;;;;;;;;;10569616;27;20039;-74
2024/01/06 13:28:05;;;;;;;4.80;2.20;;;;;;;;;;10581084;27;20142;-74
2024/01/06 13:33:09;;;;;;;4.63;2.00;;;;;;;;;;10593015;27;20096;-75
2024/01/06 13:38:13;;;;;;;5.85;2.42;;;;;;;;;;10588881;27;20453;-75
2024/01/06 13:43:16;;;;;;;7.85;3.10;;;;;;;;;;10583405;27;20068;-76
2024/01/06 13:48:19;;;;;;;8.95;3.30;;;;;;;;;;10590120;27;20130;-74
2024/01/06 13:53:22;;;;;;;8.15;2.78;;;;;;;;;;10585438;27;20417;-75
2024/01/06 13:58:27;;;;;;;8.18;2.83;;;;;;;;;;10584311;27;20126;-74
2024/01/06 14:03:30;;;;;;;7.13;3.17;;;;;;;;;;10585004;27;20031;-76
2024/01/06 14:08:33;;;;;;;4.88;2.80;;;;;;;;;;10583712;27;20411;-75
2024/01/06 14:13:37;;;;;;;6.55;2.80;;;;;;;;;;10584068;27;20047;-75
2024/01/06 14:18:39;;;;;;;7.13;2.78;;;;;;;;;;10594168;27;20124;-75
2024/01/06 14:23:42;;;;;;;8.05;3.08;;;;;;;;;;10589194;27;20035;-75
2024/01/06 14:28:46;;;;;;;7.15;3.13;;;;;;;;;;10586156;27;20074;-74
2024/01/06 14:33:49;;;;;;;9.30;3.05;;;;;;;;;;10593352;27;20035;-75
2024/01/06 14:38:52;;;;;;;5.38;2.65;;;;;;;;;;10593115;27;20126;-74
2024/01/06 14:43:56;;;;;;;5.30;2.57;;;;;;;;;;10586124;27;20042;-73
2024/01/06 14:48:59;;;;;;;5.18;2.72;;;;;;;;;;10593192;27;20496;-74
2024/01/06 14:54:02;;;;;;;5.55;2.85;;;;;;;;;;10595757;27;20472;-75
2024/01/06 14:59:06;;;;;;;6.00;3.22;;;;;;;;;;10591506;27;20127;-74
2024/01/06 15:04:09;;;;;;;6.07;2.92;;;;;;;;;;10589826;27;20543;-74
2024/01/06 15:09:12;;;;;;;8.25;3.45;;;;;;;;;;10584673;27;20519;-74
2024/01/06 15:14:16;;;;;;;6.88;2.97;;;;;;;;;;10591494;27;20083;-75
2024/01/06 15:19:18;;;;;;;2.15;1.05;;;;;;;;;;10604977;27;20437;-74
2024/01/06 15:24:23;;;;;;;4.60;1.75;;;;;;;;;;10598279;27;20036;-76
2024/01/06 15:29:27;;;;;;;8.25;3.05;;;;;;;;;;10598350;27;20077;-73
2024/01/06 15:34:30;;;;;;;8.82;3.00;;;;;;;;;;10582714;27;20913;-74
2024/01/06 15:39:33;;;;;;;5.85;2.72;;;;;;;;;;10599375;27;20554;-73
2024/01/06 15:44:39;;;;;;;8.15;3.60;;;;;;;;;;10598510;27;20114;-74
2024/01/06 15:49:41;;;;;;;7.97;3.95;;;;;;;;;;10592525;27;20067;-75
2024/01/06 15:54:46;;;;;;;8.73;3.58;;;;;;;;;;10594560;27;20063;-75
2024/01/06 15:59:51;;;;;;;6.57;3.40;;;;;;;;;;10583492;27;20039;-73
2024/01/06 16:04:54;;;;;;;8.43;4.15;;;;;;;;;;10593834;27;20044;-74
2024/01/06 16:09:57;;;;;;;9.03;3.90;;;;;;;;;;10569030;27;20067;-74
2024/01/06 16:15:01;;;;;;;8.25;4.10;;;;;;;;;;10593627;27;20056;-75
2024/01/06 16:20:06;;;;;;;8.88;3.40;;;;;;;;;;10585689;27;20134;-75
2024/01/06 16:25:09;;;;;;;9.25;4.13;;;;;;;;;;10595315;27;20047;-75
2024/01/06 16:30:14;;;;;;;8.65;2.35;;;;;;;;;;10598473;27;20072;-75
2024/01/06 16:35:17;;;;;;;7.93;3.20;;;;;;;;;;10584706;27;20045;-75
2024/01/06 16:40:20;;;;;;;11.02;4.13;;;;;;;;;;10580818;27;20043;-74
2024/01/06 16:45:24;;;;;;;11.40;4.35;;;;;;;;;;10585734;27;20556;-73
2024/01/06 16:50:27;;;;;;;11.68;4.38;;;;;;;;;;10588153;27;20050;-74
2024/01/06 16:55:30;;;;;;;10.32;4.78;;;;;;;;;;10591687;27;20043;-74
2024/01/06 17:00:34;;;;;;;10.05;4.20;;;;;;;;;;10579943;27;20131;-74
2024/01/06 17:05:37;;;;;;;9.68;4.53;;;;;;;;;;10583765;27;20515;-74
2024/01/06 17:10:41;;;;;;;11.67;5.27;;;;;;;;;;10585390;27;20270;-74
2024/01/06 17:15:45;;;;;;;39.07;13.57;;;;;;;;;;10580964;27;20031;-75
2024/01/06 17:20:48;;;;;;;11.35;4.15;;;;;;;;;;10585600;27;20157;-74
2024/01/06 17:25:51;;;;;;;9.48;4.22;;;;;;;;;;10568823;27;20035;-74
2024/01/06 17:30:55;;;;;;;8.93;4.20;;;;;;;;;;10581281;27;20139;-74
2024/01/06 17:35:58;;;;;;;10.05;4.50;;;;;;;;;;10586186;27;20045;-77
2024/01/06 17:41:01;;;;;;;10.05;4.55;;;;;;;;;;10583679;27;20043;-75
2024/01/06 17:46:05;;;;;;;9.38;4.07;;;;;;;;;;10581645;27;20042;-75
2024/01/06 17:51:10;;;;;;;9.95;3.70;;;;;;;;;;10594732;27;20043;-75
2024/01/06 17:56:13;;;;;;;14.73;4.50;;;;;;;;;;10594080;27;20445;-75
2024/01/06 18:01:17;;;;;;;11.35;4.95;;;;;;;;;;10597043;27;20051;-74
2024/01/06 18:06:20;;;;;;;;;;;;;;;;;;10597730;27;20126;-74
2024/01/06 18:11:22;;;;;;;12.77;5.15;;;;;;;;;;10589074;27;19934;-77
2024/01/06 18:16:26;;;;;;;11.23;4.63;;;;;;;;;;10591331;27;20047;-74
2024/01/06 18:21:30;;;;;;;14.02;5.32;;;;;;;;;;10597009;27;20127;-74
2024/01/06 18:26:32;;;;;;;13.70;5.63;;;;;;;;;;10595893;27;20039;-74
2024/01/06 18:31:36;;;;;;;11.82;5.65;;;;;;;;;;10596416;27;20451;-74
2024/01/06 18:36:40;;;;;;;15.38;5.85;;;;;;;;;;10591683;27;20039;-75
2024/01/06 18:41:42;;;;;;;14.45;6.05;;;;;;;;;;10591287;27;20046;-75
2024/01/06 18:46:47;;;;;;;15.25;6.53;;;;;;;;;;10589061;27;20060;-73
2024/01/06 18:51:49;;;;;;;15.00;6.25;;;;;;;;;;10583941;27;20043;-75
2024/01/06 18:56:53;;;;;;;14.88;6.55;;;;;;;;;;10593896;27;20046;-73
2024/01/06 19:01:57;;;;;;;15.27;7.20;;;;;;;;;;10588493;27;20073;-75
2024/01/06 19:07:00;;;;;;;17.35;7.05;;;;;;;;;;10598476;27;20050;-75
2024/01/06 19:12:05;;;;;;;17.98;6.85;;;;;;;;;;10594298;27;20386;-75
2024/01/06 19:17:09;;;;;;;17.38;7.60;;;;;;;;;;10588282;27;20039;-74
2024/01/06 19:22:12;;;;;;;19.27;7.57;;;;;;;;;;10595786;27;20043;-75
2024/01/06 19:27:15;;;;;;;18.52;7.78;;;;;;;;;;10592243;27;20143;-75
2024/01/06 19:32:19;;;;;;;21.10;8.10;;;;;;;;;;10588385;27;20105;-76
2024/01/06 19:37:22;;;;;;;19.08;7.80;;;;;;;;;;10564838;27;21702;-75
2024/01/06 19:42:26;;;;;;;17.10;7.50;;;;;;;;;;10592846;27;20043;-75
2024/01/06 19:47:30;;;;;;;21.73;7.93;;;;;;;;;;10587514;27;20378;-75
2024/01/06 19:52:33;;;;;;;17.42;7.20;;;;;;;;;;10589347;27;20401;-74
2024/01/06 19:57:36;;;;;;;20.70;8.15;;;;;;;;;;10591850;27;20116;-74
2024/01/06 20:02:40;;;;;;;13.70;4.95;;;;;;;;;;10588598;27;20047;-74
2024/01/06 20:07:43;;;;;;;;;;;;;;;;;;10587307;27;20027;-74
2024/01/06 20:12:46;;;;;;;18.45;6.70;;;;;;;;;;10584004;27;19924;-75
2024/01/06 20:17:50;;;;;;;17.93;6.90;;;;;;;;;;10587538;27;20050;-75
2024/01/06 20:22:54;;;;;;;21.30;7.35;;;;;;;;;;10565044;27;20265;-75
2024/01/06 20:28:00;;;;;;;18.93;7.73;;;;;;;;;;10583293;27;20039;-75
2024/01/06 20:33:05;;;;;;;16.75;6.65;;;;;;;;;;10583499;27;20047;-75
2024/01/06 20:38:08;;;;;;;19.13;6.32;;;;;;;;;;10577803;27;20104;-74
2024/01/06 20:43:11;;;;;;;23.00;7.40;;;;;;;;;;10585957;27;20039;-75
2024/01/06 20:48:15;;;;;;;18.50;7.50;;;;;;;;;;10580795;27;20155;-74
2024/01/06 20:53:19;;;;;;;14.27;5.18;;;;;;;;;;10582639;27;20101;-74
2024/01/06 20:58:22;;;;;;;14.50;6.28;;;;;;;;;;10581910;27;20516;-74
2024/01/06 21:03:26;;;;;;;17.83;7.43;;;;;;;;;;10594821;27;20058;-76
2024/01/06 21:08:29;;;;;;;17.17;6.65;;;;;;;;;;10588332;27;20039;-74
2024/01/06 21:13:32;;;;;;;16.90;6.43;;;;;;;;;;10588461;27;20042;-74
2024/01/06 21:18:37;;;;;;;18.17;7.28;;;;;;;;;;10584637;27;20055;-75
2024/01/06 21:23:40;;;;;;;18.30;6.97;;;;;;;;;;10595991;27;20073;-75
2024/01/06 21:28:50;;;;;;;16.80;7.28;;;;;;;;;;10586518;27;20043;-75
2024/01/06 21:33:54;;;;;;;14.10;4.70;;;;;;;;;;10587641;27;20047;-78
2024/01/06 21:38:57;;;;;;;15.23;4.82;;;;;;;;;;10576725;27;20040;-78
2024/01/06 21:44:00;;;;;;;14.52;6.00;;;;;;;;;;10588011;27;20035;-76
2024/01/06 21:49:04;;;;;;;18.65;7.38;;;;;;;;;;10586507;27;20077;-75
2024/01/06 21:54:07;;;;;;;;;;;;;;;;;;10583662;27;20046;-74
2024/01/06 21:59:10;;;;;;;13.52;5.60;;;;;;;;;;10581642;27;19923;-75
2024/01/06 22:04:14;;;;;;;16.23;6.13;;;;;;;;;;10590240;27;20218;-75
2024/01/06 22:09:18;;;;;;;13.80;6.18;;;;;;;;;;10583784;27;20040;-74
2024/01/06 22:14:23;;;;;;;17.73;6.28;;;;;;;;;;10590147;27;20042;-76
2024/01/06 22:19:27;;;;;;;14.73;5.28;;;;;;;;;;10587251;27;20171;-74
2024/01/06 22:24:30;;;;;;;5.07;2.00;;;;;;;;;;10580559;27;20044;-75
2024/01/06 22:29:33;;;;;;;15.10;5.70;;;;;;;;;;10590265;27;20043;-74
2024/01/06 22:34:37;;;;;;;4.65;2.28;;;;;;;;;;10581523;27;20042;-75
2024/01/06 22:39:42;;;;;;;15.38;5.97;;;;;;;;;;10576493;27;20104;-74
2024/01/06 22:44:44;;;;;;;13.50;5.40;;;;;;;;;;10595728;27;20050;-75
2024/01/06 22:49:48;;;;;;;16.70;7.18;;;;;;;;;;10598755;27;20061;-77
2024/01/06 22:54:51;;;;;;;16.35;5.97;;;;;;;;;;10597862;27;20118;-76
2024/01/06 22:59:54;;;;;;;11.43;4.93;;;;;;;;;;10590537;27;20043;-74
2024/01/06 23:04:58;;;;;;;9.07;3.67;;;;;;;;;;10594885;27;20044;-75
2024/01/06 23:10:01;;;;;;;11.85;5.15;;;;;;;;;;10601474;27;20574;-76
2024/01/06 23:15:04;;;;;;;12.90;5.20;;;;;;;;;;10597403;27;20050;-76
2024/01/06 23:20:09;;;;;;;11.57;4.60;;;;;;;;;;10573229;27;20806;-76
2024/01/06 23:25:11;;;;;;;14.98;5.40;;;;;;;;;;10598186;27;20039;-76
2024/01/06 23:30:14;;;;;;;7.10;3.22;;;;;;;;;;10594987;27;20036;-77
2024/01/06 23:35:18;;;;;;;14.38;5.25;;;;;;;;;;10591624;27;20080;-76
2024/01/06 23:40:21;;;;;;;9.55;4.25;;;;;;;;;;10595783;27;20038;-77
2024/01/06 23:45:25;;;;;;;13.38;4.55;;;;;;;;;;10590912;27;20122;-77
2024/01/06 23:50:30;;;;;;;12.25;4.32;;;;;;;;;;10573465;27;20040;-76
2024/01/06 23:55:33;;;;;;;16.30;6.35;;;;;;;;;;10595555;27;20426;-76
